Thunder radar more information blitzortung!


Radar de pluja more information rain snow radar


Visita la nostra xarxa de llocs de meteo:

Template documentation
and downloads

And another site



No particular awareness of the weather is required.    There are no Weather-warnings

Pagina Historial Weather Underground text

Diari Resum January 29, 2018 Unitats:  Tant    Imperial   Mètric
« Previous Dia
SegĂźent Dia »
Diari Setmana Mensual Anual Personalitzada
  Maxima: Minima: Media:
Temperatura: TemperatureC °F /  -17.8 °C 3.8 °F /  -15.7 °C 10.5 °F /  -11.9 °C
Punt de rosada: DewpointC °F /  -17.8 °C 0.1 °F /  -17.7 °C 3.6 °F /  -15.8 °C
Humitat: Humidity % 52 % 63 %
Wind Speed: WindSpeedKMH mph /  0 km/h - 3.8 mph /  6.1 km/h
RĂ fegues de vent: WindSpeedGustKMH mph /  0 km/h - -
Vent:- - NNE
Pression baro: PressurehPa in /  0 hPa 1030.7 in /  34899.5 hPa -
Precipitacions: 0.0 in /  0 mm    
Historical Graphs
 
 
Dades de taula per January 29, 2018
Temps Temperatura Punt de rosada Pression baro Vent Wind Speed RĂ fegues de vent Humitat Rainfall Rate (Hourly)
TemperatureC °F /  -17.8 °C DewpointC °F /  -17.8 °C PressurehPa in /  0 hPa Calm     Humidity % HourlyPrecipMM in /  0 mm
00:00 7.5 °F /  -13.6 °C 2.4 °F /  -16.4 °C 1038.8 in /  35173.8 hPa NE 1.9 mph /  3.1 km/h 1.9 mph /  3.1 km/h 70 % 0.0 in /  0 mm
00:05 7.5 °F /  -13.6 °C 2.4 °F /  -16.4 °C 1038.8 in /  35173.8 hPa NE 5.6 mph /  9 km/h 5.6 mph /  9 km/h 70 % 0.0 in /  0 mm
00:10 7.6 °F /  -13.6 °C 2.5 °F /  -16.4 °C 1038.8 in /  35173.8 hPa NE 3.9 mph /  6.3 km/h 3.9 mph /  6.3 km/h 70 % 0.0 in /  0 mm
00:15 7.6 °F /  -13.6 °C 2.5 °F /  -16.4 °C 1038.8 in /  35173.8 hPa NE 3.7 mph /  6 km/h 3.7 mph /  6 km/h 70 % 0.0 in /  0 mm
00:20 7.7 °F /  -13.5 °C 2.4 °F /  -16.4 °C 1038.8 in /  35173.8 hPa NE 5.6 mph /  9 km/h 5.6 mph /  9 km/h 69 % 0.0 in /  0 mm
00:25 7.7 °F /  -13.5 °C 2.4 °F /  -16.4 °C 1038.8 in /  35173.8 hPa NE 3.9 mph /  6.3 km/h 3.9 mph /  6.3 km/h 69 % 0.0 in /  0 mm
00:30 7.6 °F /  -13.6 °C 2.3 °F /  -16.5 °C 1038.8 in /  35173.8 hPa NE 5.6 mph /  9 km/h 5.6 mph /  9 km/h 69 % 0.0 in /  0 mm
00:35 7.6 °F /  -13.6 °C 2.3 °F /  -16.5 °C 1037.8 in /  35139.9 hPa NE 5.0 mph /  8 km/h 5.0 mph /  8 km/h 69 % 0.0 in /  0 mm
00:40 7.5 °F /  -13.6 °C 2.2 °F /  -16.6 °C 1037.8 in /  35139.9 hPa NE 3.9 mph /  6.3 km/h 3.9 mph /  6.3 km/h 69 % 0.0 in /  0 mm
00:45 7.4 °F /  -13.7 °C 2.1 °F /  -16.6 °C 1037.8 in /  35139.9 hPa NE 3.7 mph /  6 km/h 3.7 mph /  6 km/h 69 % 0.0 in /  0 mm
00:50 7.3 °F /  -13.7 °C 2.0 °F /  -16.7 °C 1037.8 in /  35139.9 hPa NE 3.7 mph /  6 km/h 3.7 mph /  6 km/h 69 % 0.0 in /  0 mm
00:55 7.3 °F /  -13.7 °C 2.0 °F /  -16.7 °C 1037.8 in /  35139.9 hPa NE 3.7 mph /  6 km/h 3.7 mph /  6 km/h 69 % 0.0 in /  0 mm
01:00 7.3 °F /  -13.7 °C 2.2 °F /  -16.6 °C 1038.8 in /  35173.8 hPa NE 1.9 mph /  3.1 km/h   70 % 0.0 in /  0 mm
01:05 7.4 °F /  -13.7 °C 2.3 °F /  -16.5 °C 1038.8 in /  35173.8 hPa NE 3.7 mph /  6 km/h 3.7 mph /  6 km/h 70 % 0.0 in /  0 mm
01:10 7.4 °F /  -13.7 °C 2.3 °F /  -16.5 °C 1038.8 in /  35173.8 hPa NE 1.9 mph /  3.1 km/h   70 % 0.0 in /  0 mm
01:15 7.3 °F /  -13.7 °C 2.2 °F /  -16.6 °C 1037.8 in /  35139.9 hPa NE 1.9 mph /  3.1 km/h 1.9 mph /  3.1 km/h 70 % 0.0 in /  0 mm
01:20 7.2 °F /  -13.8 °C 2.1 °F /  -16.6 °C 1037.8 in /  35139.9 hPa Calm     70 % 0.0 in /  0 mm
01:25 7.2 °F /  -13.8 °C 2.1 °F /  -16.6 °C 1037.8 in /  35139.9 hPa NE 3.7 mph /  6 km/h 3.7 mph /  6 km/h 70 % 0.0 in /  0 mm
01:30 7.4 °F /  -13.7 °C 2.3 °F /  -16.5 °C 1037.8 in /  35139.9 hPa NE 1.9 mph /  3.1 km/h 1.9 mph /  3.1 km/h 70 % 0.0 in /  0 mm
01:35 7.4 °F /  -13.7 °C 2.3 °F /  -16.5 °C 1037.8 in /  35139.9 hPa NE 3.7 mph /  6 km/h 3.7 mph /  6 km/h 70 % 0.0 in /  0 mm
01:40 7.3 °F /  -13.7 °C 2.2 °F /  -16.6 °C 1037.8 in /  35139.9 hPa NE 1.9 mph /  3.1 km/h 1.9 mph /  3.1 km/h 70 % 0.0 in /  0 mm
01:45 7.4 °F /  -13.7 °C 2.1 °F /  -16.6 °C 1037.8 in /  35139.9 hPa NE 1.9 mph /  3.1 km/h 2.3 mph /  3.7 km/h 69 % 0.0 in /  0 mm
01:50 7.6 °F /  -13.6 °C 2.3 °F /  -16.5 °C 1037.8 in /  35139.9 hPa NE 3.7 mph /  6 km/h 3.7 mph /  6 km/h 69 % 0.0 in /  0 mm
01:55 7.6 °F /  -13.6 °C 2.3 °F /  -16.5 °C 1037.8 in /  35139.9 hPa NE 1.9 mph /  3.1 km/h 1.9 mph /  3.1 km/h 69 % 0.0 in /  0 mm
02:00 4.7 °F /  -15.2 °C 0.7 °F /  -17.4 °C 1036.8 in /  35106 hPa NNE 1.6 mph /  2.6 km/h 3.2 mph /  5.1 km/h 75 % 0.0 in /  0 mm
02:10 4.7 °F /  -15.2 °C 0.7 °F /  -17.4 °C 1036.8 in /  35106 hPa NNE 1.6 mph /  2.6 km/h 1.6 mph /  2.6 km/h 75 % 0.0 in /  0 mm
02:20 4.8 °F /  -15.1 °C 0.7 °F /  -17.4 °C 1036.8 in /  35106 hPa NNE 1.6 mph /  2.6 km/h 3.2 mph /  5.1 km/h 75 % 0.0 in /  0 mm
02:30 5.0 °F /  -15 °C 1.1 °F /  -17.2 °C 1036.8 in /  35106 hPa NNE 1.6 mph /  2.6 km/h 1.6 mph /  2.6 km/h 76 % 0.0 in /  0 mm
02:40 5.2 °F /  -14.9 °C 1.1 °F /  -17.2 °C 1036.8 in /  35106 hPa Calm   3.2 mph /  5.1 km/h 75 % 0.0 in /  0 mm
02:50 5.3 °F /  -14.8 °C 1.2 °F /  -17.1 °C 1036.8 in /  35106 hPa NNE 1.6 mph /  2.6 km/h 3.2 mph /  5.1 km/h 75 % 0.0 in /  0 mm
03:00 5.6 °F /  -14.7 °C 1.5 °F /  -16.9 °C 1036.8 in /  35106 hPa Calm   1.6 mph /  2.6 km/h 75 % 0.0 in /  0 mm
03:10 5.9 °F /  -14.5 °C 1.6 °F /  -16.9 °C 1036.8 in /  35106 hPa NNE 1.6 mph /  2.6 km/h 3.2 mph /  5.1 km/h 74 % 0.0 in /  0 mm
03:20 6.3 °F /  -14.3 °C 2.0 °F /  -16.7 °C 1037.8 in /  35139.9 hPa NNE 3.2 mph /  5.1 km/h 4.8 mph /  7.7 km/h 74 % 0.0 in /  0 mm
03:30 6.7 °F /  -14.1 °C 2.4 °F /  -16.4 °C 1037.8 in /  35139.9 hPa NNE 1.6 mph /  2.6 km/h 3.2 mph /  5.1 km/h 74 % 0.0 in /  0 mm
03:40 7.1 °F /  -13.8 °C 2.6 °F /  -16.3 °C 1036.8 in /  35106 hPa NNE 1.6 mph /  2.6 km/h 4.8 mph /  7.7 km/h 73 % 0.0 in /  0 mm
03:50 7.5 °F /  -13.6 °C 2.8 °F /  -16.2 °C 1037.8 in /  35139.9 hPa NNE 1.6 mph /  2.6 km/h 3.2 mph /  5.1 km/h 72 % 0.0 in /  0 mm
04:00 8.1 °F /  -13.3 °C 3.2 °F /  -16 °C 1037.8 in /  35139.9 hPa NNE 1.6 mph /  2.6 km/h 1.6 mph /  2.6 km/h 71 % 0.0 in /  0 mm
04:10 8.4 °F /  -13.1 °C 3.2 °F /  -16 °C 1037.8 in /  35139.9 hPa NNE 1.6 mph /  2.6 km/h 3.2 mph /  5.1 km/h 70 % 0.0 in /  0 mm
04:20 8.8 °F /  -12.9 °C 3.6 °F /  -15.8 °C 1037.8 in /  35139.9 hPa NNE 1.6 mph /  2.6 km/h 3.2 mph /  5.1 km/h 70 % 0.0 in /  0 mm
04:30 8.7 °F /  -12.9 °C 3.3 °F /  -15.9 °C 1037.8 in /  35139.9 hPa NNE 4.8 mph /  7.7 km/h 4.8 mph /  7.7 km/h 69 % 0.0 in /  0 mm
04:40 9.0 °F /  -12.8 °C 3.4 °F /  -15.9 °C 1037.8 in /  35139.9 hPa NNE 1.6 mph /  2.6 km/h 3.2 mph /  5.1 km/h 68 % 0.0 in /  0 mm
10:47 9.3 °F /  -12.6 °C 3.7 °F /  -15.7 °C 1037.8 in /  35139.9 hPa NNE 3.7 mph /  6 km/h 3.7 mph /  6 km/h 68 % 0.0 in /  0 mm
10:52 9.4 °F /  -12.6 °C 3.8 °F /  -15.7 °C 1037.8 in /  35139.9 hPa NNE 5.6 mph /  9 km/h 5.6 mph /  9 km/h 68 % 0.0 in /  0 mm
10:57 9.4 °F /  -12.6 °C 3.6 °F /  -15.8 °C 1037.8 in /  35139.9 hPa NNE 9.3 mph /  15 km/h 9.3 mph /  15 km/h 67 % 0.0 in /  0 mm
11:02 9.3 °F /  -12.6 °C 3.5 °F /  -15.8 °C 1037.8 in /  35139.9 hPa NNE 7.4 mph /  11.9 km/h 7.4 mph /  11.9 km/h 67 % 0.0 in /  0 mm
11:07 9.6 °F /  -12.4 °C 3.8 °F /  -15.7 °C 1037.8 in /  35139.9 hPa NNE 5.6 mph /  9 km/h 5.6 mph /  9 km/h 67 % 0.0 in /  0 mm
11:12 9.6 °F /  -12.4 °C 3.6 °F /  -15.8 °C 1037.8 in /  35139.9 hPa NNE 3.7 mph /  6 km/h 3.7 mph /  6 km/h 66 % 0.0 in /  0 mm
11:17 9.8 °F /  -12.3 °C 3.7 °F /  -15.7 °C 1036.8 in /  35106 hPa NNE 6.1 mph /  9.8 km/h 6.4 mph /  10.3 km/h 66 % 0.0 in /  0 mm
11:22 10.0 °F /  -12.2 °C 3.9 °F /  -15.6 °C 1036.8 in /  35106 hPa NNE 6.1 mph /  9.8 km/h 6.4 mph /  10.3 km/h 66 % 0.0 in /  0 mm
11:27 10.4 °F /  -12 °C 4.1 °F /  -15.5 °C 1036.8 in /  35106 hPa NNE 3.7 mph /  6 km/h 3.7 mph /  6 km/h 65 % 0.0 in /  0 mm
11:32 10.4 °F /  -12 °C 4.1 °F /  -15.5 °C 1037.8 in /  35139.9 hPa NNE 5.6 mph /  9 km/h 5.6 mph /  9 km/h 65 % 0.0 in /  0 mm
11:37 10.6 °F /  -11.9 °C 4.3 °F /  -15.4 °C 1037.8 in /  35139.9 hPa NNE 6.1 mph /  9.8 km/h 6.1 mph /  9.8 km/h 65 % 0.0 in /  0 mm
11:42 10.7 °F /  -11.8 °C 4.2 °F /  -15.4 °C 1037.8 in /  35139.9 hPa NNE 5.6 mph /  9 km/h 5.6 mph /  9 km/h 64 % 0.0 in /  0 mm
11:47 10.7 °F /  -11.8 °C 4.2 °F /  -15.4 °C 1037.8 in /  35139.9 hPa NNE 5.6 mph /  9 km/h 5.6 mph /  9 km/h 64 % 0.0 in /  0 mm
11:52 10.9 °F /  -11.7 °C 4.3 °F /  -15.4 °C 1037.8 in /  35139.9 hPa NNE 5.6 mph /  9 km/h 5.6 mph /  9 km/h 64 % 0.0 in /  0 mm
11:57 11.1 °F /  -11.6 °C 4.6 °F /  -15.2 °C 1037.8 in /  35139.9 hPa NNE 5.0 mph /  8 km/h 5.0 mph /  8 km/h 64 % 0.0 in /  0 mm
12:02 11.0 °F /  -11.7 °C 4.2 °F /  -15.4 °C 1037.8 in /  35139.9 hPa NNE 7.4 mph /  11.9 km/h 7.4 mph /  11.9 km/h 63 % 0.0 in /  0 mm
12:07 11.2 °F /  -11.6 °C 4.4 °F /  -15.3 °C 1037.8 in /  35139.9 hPa NNE 4.7 mph /  7.6 km/h 4.7 mph /  7.6 km/h 63 % 0.0 in /  0 mm
12:12 11.4 °F /  -11.4 °C 4.6 °F /  -15.2 °C 1037.8 in /  35139.9 hPa NNE 5.6 mph /  9 km/h 5.6 mph /  9 km/h 63 % 0.0 in /  0 mm
12:17 11.2 °F /  -11.6 °C 4.2 °F /  -15.4 °C 1035.8 in /  35072.2 hPa NNE 5.6 mph /  9 km/h 5.6 mph /  9 km/h 62 % 0.0 in /  0 mm
12:22 11.3 °F /  -11.5 °C 4.3 °F /  -15.4 °C 1035.8 in /  35072.2 hPa NNE 3.7 mph /  6 km/h 3.7 mph /  6 km/h 62 % 0.0 in /  0 mm
12:27 11.6 °F /  -11.3 °C 4.8 °F /  -15.1 °C 1035.8 in /  35072.2 hPa NNE 3.7 mph /  6 km/h 3.7 mph /  6 km/h 63 % 0.0 in /  0 mm
12:32 11.8 °F /  -11.2 °C 4.7 °F /  -15.2 °C 1035.8 in /  35072.2 hPa NNE 4.7 mph /  7.6 km/h 4.7 mph /  7.6 km/h 62 % 0.0 in /  0 mm
12:37 12.0 °F /  -11.1 °C 4.9 °F /  -15.1 °C 1035.8 in /  35072.2 hPa NNE 3.7 mph /  6 km/h 3.7 mph /  6 km/h 62 % 0.0 in /  0 mm
12:42 12.0 °F /  -11.1 °C 4.7 °F /  -15.2 °C 1035.8 in /  35072.2 hPa NNE 5.3 mph /  8.5 km/h 5.3 mph /  8.5 km/h 61 % 0.0 in /  0 mm
12:47 12.2 °F /  -11 °C 5.1 °F /  -14.9 °C 1035.8 in /  35072.2 hPa NNE 3.7 mph /  6 km/h 3.7 mph /  6 km/h 62 % 0.0 in /  0 mm
12:52 12.6 °F /  -10.8 °C 5.5 °F /  -14.7 °C 1035.8 in /  35072.2 hPa NNE 3.7 mph /  6 km/h 3.7 mph /  6 km/h 62 % 0.0 in /  0 mm
12:57 12.7 °F /  -10.7 °C 5.6 °F /  -14.7 °C 1035.8 in /  35072.2 hPa NNE 4.2 mph /  6.8 km/h 4.2 mph /  6.8 km/h 62 % 0.0 in /  0 mm
13:02 12.7 °F /  -10.7 °C 5.4 °F /  -14.8 °C 1035.8 in /  35072.2 hPa NNE 7.4 mph /  11.9 km/h 7.4 mph /  11.9 km/h 61 % 0.0 in /  0 mm
13:07 12.8 °F /  -10.7 °C 5.4 °F /  -14.8 °C 1035.8 in /  35072.2 hPa NNE 5.6 mph /  9 km/h 5.6 mph /  9 km/h 61 % 0.0 in /  0 mm
13:12 12.7 °F /  -10.7 °C 5.4 °F /  -14.8 °C 1035.8 in /  35072.2 hPa NNE 4.2 mph /  6.8 km/h 4.2 mph /  6.8 km/h 61 % 0.0 in /  0 mm
13:17 13.0 °F /  -10.6 °C 5.7 °F /  -14.6 °C 1034.8 in /  35038.3 hPa NNE 5.6 mph /  9 km/h 5.6 mph /  9 km/h 61 % 0.0 in /  0 mm
13:22 13.0 °F /  -10.6 °C 5.4 °F /  -14.8 °C 1034.8 in /  35038.3 hPa NNE 7.4 mph /  11.9 km/h 7.4 mph /  11.9 km/h 60 % 0.0 in /  0 mm
13:27 13.2 °F /  -10.4 °C 5.6 °F /  -14.7 °C 1034.8 in /  35038.3 hPa NNE 7.4 mph /  11.9 km/h 7.4 mph /  11.9 km/h 60 % 0.0 in /  0 mm
13:32 13.3 °F /  -10.4 °C 5.7 °F /  -14.6 °C 1035.8 in /  35072.2 hPa NNE 3.9 mph /  6.3 km/h 4.7 mph /  7.6 km/h 60 % 0.0 in /  0 mm
13:37 13.4 °F /  -10.3 °C 5.6 °F /  -14.7 °C 1035.8 in /  35072.2 hPa NNE 7.4 mph /  11.9 km/h 7.4 mph /  11.9 km/h 59 % 0.0 in /  0 mm
13:42 13.4 °F /  -10.3 °C 5.6 °F /  -14.7 °C 1035.8 in /  35072.2 hPa NNE 3.9 mph /  6.3 km/h 3.9 mph /  6.3 km/h 59 % 0.0 in /  0 mm
13:47 13.5 °F /  -10.3 °C 5.9 °F /  -14.5 °C 1034.8 in /  35038.3 hPa NNE 3.7 mph /  6 km/h 3.7 mph /  6 km/h 60 % 0.0 in /  0 mm
13:52 13.5 °F /  -10.3 °C 5.6 °F /  -14.7 °C 1034.8 in /  35038.3 hPa NNE 5.6 mph /  9 km/h 5.6 mph /  9 km/h 59 % 0.0 in /  0 mm
13:57 13.7 °F /  -10.2 °C 5.6 °F /  -14.7 °C 1034.8 in /  35038.3 hPa NNE 5.6 mph /  9 km/h 5.6 mph /  9 km/h 58 % 0.0 in /  0 mm
14:02 13.9 °F /  -10.1 °C 6.0 °F /  -14.4 °C 1034.8 in /  35038.3 hPa NNE 5.6 mph /  9 km/h 5.6 mph /  9 km/h 59 % 0.0 in /  0 mm
14:07 14.3 °F /  -9.8 °C 6.6 °F /  -14.1 °C 1034.8 in /  35038.3 hPa NNE 7.4 mph /  11.9 km/h 7.4 mph /  11.9 km/h 60 % 0.0 in /  0 mm
14:12 14.3 °F /  -9.8 °C 6.4 °F /  -14.2 °C 1034.8 in /  35038.3 hPa NNE 7.4 mph /  11.9 km/h 7.4 mph /  11.9 km/h 59 % 0.0 in /  0 mm
14:17 14.4 °F /  -9.8 °C 6.2 °F /  -14.3 °C 1034.8 in /  35038.3 hPa NNE 3.7 mph /  6 km/h 3.7 mph /  6 km/h 58 % 0.0 in /  0 mm
14:22 14.5 °F /  -9.7 °C 6.3 °F /  -14.3 °C 1034.8 in /  35038.3 hPa NNE 5.8 mph /  9.3 km/h 5.8 mph /  9.3 km/h 58 % 0.0 in /  0 mm
14:27 14.5 °F /  -9.7 °C 6.1 °F /  -14.4 °C 1034.8 in /  35038.3 hPa NNE 5.6 mph /  9 km/h 5.6 mph /  9 km/h 57 % 0.0 in /  0 mm
14:32 15.0 °F /  -9.4 °C 7.1 °F /  -13.8 °C 1033.7 in /  35001.1 hPa NNE 3.7 mph /  6 km/h 3.7 mph /  6 km/h 59 % 0.0 in /  0 mm
14:37 15.3 °F /  -9.3 °C 7.3 °F /  -13.7 °C 1033.7 in /  35001.1 hPa NNE 5.8 mph /  9.3 km/h 5.8 mph /  9.3 km/h 59 % 0.0 in /  0 mm
14:42 15.4 °F /  -9.2 °C 7.2 °F /  -13.8 °C 1033.7 in /  35001.1 hPa NNE 7.4 mph /  11.9 km/h 7.4 mph /  11.9 km/h 58 % 0.0 in /  0 mm
14:47 15.4 °F /  -9.2 °C 7.2 °F /  -13.8 °C 1033.7 in /  35001.1 hPa NNE 10.0 mph /  16.1 km/h 10.0 mph /  16.1 km/h 58 % 0.0 in /  0 mm
14:52 15.3 °F /  -9.3 °C 6.6 °F /  -14.1 °C 1033.7 in /  35001.1 hPa North 9.3 mph /  15 km/h 9.3 mph /  15 km/h 56 % 0.0 in /  0 mm
14:57 15.8 °F /  -9 °C 7.3 °F /  -13.7 °C 1033.7 in /  35001.1 hPa North 7.4 mph /  11.9 km/h 7.4 mph /  11.9 km/h 57 % 0.0 in /  0 mm
15:02 15.8 °F /  -9 °C 7.1 °F /  -13.8 °C 1033.7 in /  35001.1 hPa North 9.5 mph /  15.3 km/h 9.5 mph /  15.3 km/h 56 % 0.0 in /  0 mm
15:07 15.8 °F /  -9 °C 7.1 °F /  -13.8 °C 1033.7 in /  35001.1 hPa North 9.3 mph /  15 km/h 9.3 mph /  15 km/h 56 % 0.0 in /  0 mm
15:12 16.0 °F /  -8.9 °C 6.9 °F /  -13.9 °C 1033.7 in /  35001.1 hPa North 9.3 mph /  15 km/h 9.3 mph /  15 km/h 55 % 0.0 in /  0 mm
15:17 15.8 °F /  -9 °C 7.1 °F /  -13.8 °C 1033.7 in /  35001.1 hPa North 9.3 mph /  15 km/h 9.3 mph /  15 km/h 56 % 0.0 in /  0 mm
15:22 16.1 °F /  -8.8 °C 7.1 °F /  -13.8 °C 1033.7 in /  35001.1 hPa North 9.0 mph /  14.5 km/h 9.0 mph /  14.5 km/h 55 % 0.0 in /  0 mm
15:27 16.3 °F /  -8.7 °C 7.2 °F /  -13.8 °C 1033.7 in /  35001.1 hPa North 9.7 mph /  15.6 km/h 9.7 mph /  15.6 km/h 55 % 0.0 in /  0 mm
15:32 16.3 °F /  -8.7 °C 7.2 °F /  -13.8 °C 1033.7 in /  35001.1 hPa North 9.3 mph /  15 km/h 9.3 mph /  15 km/h 55 % 0.0 in /  0 mm
15:37 16.3 °F /  -8.7 °C 7.2 °F /  -13.8 °C 1033.7 in /  35001.1 hPa North 7.4 mph /  11.9 km/h 7.4 mph /  11.9 km/h 55 % 0.0 in /  0 mm
15:42 16.2 °F /  -8.8 °C 6.9 °F /  -13.9 °C 1033.7 in /  35001.1 hPa North 11.1 mph /  17.9 km/h 11.1 mph /  17.9 km/h 54 % 0.0 in /  0 mm
15:47 16.3 °F /  -8.7 °C 7.2 °F /  -13.8 °C 1033.7 in /  35001.1 hPa North 5.6 mph /  9 km/h 5.6 mph /  9 km/h 55 % 0.0 in /  0 mm
15:52 16.6 °F /  -8.6 °C 7.2 °F /  -13.8 °C 1033.7 in /  35001.1 hPa North 5.6 mph /  9 km/h 5.6 mph /  9 km/h 54 % 0.0 in /  0 mm
15:57 16.7 °F /  -8.5 °C 7.6 °F /  -13.6 °C 1033.7 in /  35001.1 hPa North 5.6 mph /  9 km/h 5.6 mph /  9 km/h 55 % 0.0 in /  0 mm
16:02 16.8 °F /  -8.4 °C 7.4 °F /  -13.7 °C 1033.7 in /  35001.1 hPa North 9.3 mph /  15 km/h 9.3 mph /  15 km/h 54 % 0.0 in /  0 mm
16:07 16.7 °F /  -8.5 °C 7.3 °F /  -13.7 °C 1033.7 in /  35001.1 hPa North 7.4 mph /  11.9 km/h 7.4 mph /  11.9 km/h 54 % 0.0 in /  0 mm
16:12 16.7 °F /  -8.5 °C 7.3 °F /  -13.7 °C 1033.7 in /  35001.1 hPa North 7.4 mph /  11.9 km/h 7.4 mph /  11.9 km/h 54 % 0.0 in /  0 mm
16:17 16.7 °F /  -8.5 °C 7.3 °F /  -13.7 °C 1033.7 in /  35001.1 hPa North 5.6 mph /  9 km/h 5.6 mph /  9 km/h 54 % 0.0 in /  0 mm
16:22 16.6 °F /  -8.6 °C 7.0 °F /  -13.9 °C 1033.7 in /  35001.1 hPa North 9.3 mph /  15 km/h 9.3 mph /  15 km/h 53 % 0.0 in /  0 mm
16:27 16.6 °F /  -8.6 °C 7.0 °F /  -13.9 °C 1033.7 in /  35001.1 hPa North 5.6 mph /  9 km/h 5.6 mph /  9 km/h 53 % 0.0 in /  0 mm
16:32 16.6 °F /  -8.6 °C 7.0 °F /  -13.9 °C 1033.7 in /  35001.1 hPa North 7.4 mph /  11.9 km/h 7.4 mph /  11.9 km/h 53 % 0.0 in /  0 mm
16:37 16.5 °F /  -8.6 °C 6.9 °F /  -13.9 °C 1033.7 in /  35001.1 hPa North 3.7 mph /  6 km/h 3.7 mph /  6 km/h 53 % 0.0 in /  0 mm
16:42 16.4 °F /  -8.7 °C 6.8 °F /  -14 °C 1033.7 in /  35001.1 hPa North 5.6 mph /  9 km/h 5.6 mph /  9 km/h 53 % 0.0 in /  0 mm
16:47 16.3 °F /  -8.7 °C 6.7 °F /  -14.1 °C 1033.7 in /  35001.1 hPa North 9.0 mph /  14.5 km/h 9.0 mph /  14.5 km/h 53 % 0.0 in /  0 mm
16:52 16.2 °F /  -8.8 °C 6.6 °F /  -14.1 °C 1033.7 in /  35001.1 hPa North 7.4 mph /  11.9 km/h 7.4 mph /  11.9 km/h 53 % 0.0 in /  0 mm
16:57 16.1 °F /  -8.8 °C 6.5 °F /  -14.2 °C 1033.7 in /  35001.1 hPa North 7.4 mph /  11.9 km/h 7.4 mph /  11.9 km/h 53 % 0.0 in /  0 mm
17:02 16.0 °F /  -8.9 °C 6.2 °F /  -14.3 °C 1033.7 in /  35001.1 hPa North 5.6 mph /  9 km/h 5.6 mph /  9 km/h 52 % 0.0 in /  0 mm
17:07 15.9 °F /  -8.9 °C 6.1 °F /  -14.4 °C 1033.7 in /  35001.1 hPa North 9.3 mph /  15 km/h 9.3 mph /  15 km/h 52 % 0.0 in /  0 mm
17:12 15.6 °F /  -9.1 °C 5.8 °F /  -14.6 °C 1033.7 in /  35001.1 hPa North 7.4 mph /  11.9 km/h 7.4 mph /  11.9 km/h 52 % 0.0 in /  0 mm
17:17 15.5 °F /  -9.2 °C 5.7 °F /  -14.6 °C 1032.7 in /  34967.2 hPa North 7.4 mph /  11.9 km/h 7.4 mph /  11.9 km/h 52 % 0.0 in /  0 mm
17:22 15.4 °F /  -9.2 °C 5.6 °F /  -14.7 °C 1032.7 in /  34967.2 hPa North 3.9 mph /  6.3 km/h 3.9 mph /  6.3 km/h 52 % 0.0 in /  0 mm
17:27 15.3 °F /  -9.3 °C 5.5 °F /  -14.7 °C 1032.7 in /  34967.2 hPa North 3.7 mph /  6 km/h 3.7 mph /  6 km/h 52 % 0.0 in /  0 mm
17:32 15.1 °F /  -9.4 °C 5.3 °F /  -14.8 °C 1033.7 in /  35001.1 hPa North 4.2 mph /  6.8 km/h 4.2 mph /  6.8 km/h 52 % 0.0 in /  0 mm
17:37 14.8 °F /  -9.6 °C 5.1 °F /  -14.9 °C 1033.7 in /  35001.1 hPa North 2.6 mph /  4.2 km/h 2.6 mph /  4.2 km/h 52 % 0.0 in /  0 mm
17:42 14.5 °F /  -9.7 °C 4.8 °F /  -15.1 °C 1033.7 in /  35001.1 hPa North 7.4 mph /  11.9 km/h 7.4 mph /  11.9 km/h 52 % 0.0 in /  0 mm
17:47 14.2 °F /  -9.9 °C 4.5 °F /  -15.3 °C 1033.7 in /  35001.1 hPa North 3.7 mph /  6 km/h 3.7 mph /  6 km/h 52 % 0.0 in /  0 mm
17:52 13.9 °F /  -10.1 °C 4.2 °F /  -15.4 °C 1033.7 in /  35001.1 hPa North 3.7 mph /  6 km/h 3.7 mph /  6 km/h 52 % 0.0 in /  0 mm
17:57 13.5 °F /  -10.3 °C 3.8 °F /  -15.7 °C 1033.7 in /  35001.1 hPa North 3.7 mph /  6 km/h 3.7 mph /  6 km/h 52 % 0.0 in /  0 mm
18:02 13.2 °F /  -10.4 °C 3.8 °F /  -15.7 °C 1033.7 in /  35001.1 hPa North 3.7 mph /  6 km/h 3.7 mph /  6 km/h 53 % 0.0 in /  0 mm
18:07 13.0 °F /  -10.6 °C 3.6 °F /  -15.8 °C 1033.7 in /  35001.1 hPa North 3.7 mph /  6 km/h 3.7 mph /  6 km/h 53 % 0.0 in /  0 mm
18:12 12.8 °F /  -10.7 °C 3.4 °F /  -15.9 °C 1033.7 in /  35001.1 hPa North 3.9 mph /  6.3 km/h 4.2 mph /  6.8 km/h 53 % 0.0 in /  0 mm
18:17 12.6 °F /  -10.8 °C 3.6 °F /  -15.8 °C 1033.7 in /  35001.1 hPa North 3.7 mph /  6 km/h 3.7 mph /  6 km/h 54 % 0.0 in /  0 mm
18:22 12.3 °F /  -10.9 °C 3.2 °F /  -16 °C 1033.7 in /  35001.1 hPa North 3.7 mph /  6 km/h 3.7 mph /  6 km/h 54 % 0.0 in /  0 mm
18:27 12.2 °F /  -11 °C 3.2 °F /  -16 °C 1033.7 in /  35001.1 hPa North 3.7 mph /  6 km/h 3.7 mph /  6 km/h 54 % 0.0 in /  0 mm
18:32 12.0 °F /  -11.1 °C 3.2 °F /  -16 °C 1033.7 in /  35001.1 hPa North 3.7 mph /  6 km/h 3.7 mph /  6 km/h 55 % 0.0 in /  0 mm
18:37 11.9 °F /  -11.2 °C 3.1 °F /  -16.1 °C 1033.7 in /  35001.1 hPa North 5.6 mph /  9 km/h 5.6 mph /  9 km/h 55 % 0.0 in /  0 mm
18:42 11.8 °F /  -11.2 °C 3.1 °F /  -16.1 °C 1033.7 in /  35001.1 hPa North 3.7 mph /  6 km/h 3.7 mph /  6 km/h 55 % 0.0 in /  0 mm
18:47 11.7 °F /  -11.3 °C 3.2 °F /  -16 °C 1033.7 in /  35001.1 hPa North 3.9 mph /  6.3 km/h 3.9 mph /  6.3 km/h 56 % 0.0 in /  0 mm
18:52 11.7 °F /  -11.3 °C 3.2 °F /  -16 °C 1033.7 in /  35001.1 hPa North 3.7 mph /  6 km/h 3.7 mph /  6 km/h 56 % 0.0 in /  0 mm
18:57 11.7 °F /  -11.3 °C 3.4 °F /  -15.9 °C 1033.7 in /  35001.1 hPa North 3.7 mph /  6 km/h 3.7 mph /  6 km/h 57 % 0.0 in /  0 mm
19:02 11.7 °F /  -11.3 °C 3.4 °F /  -15.9 °C 1033.7 in /  35001.1 hPa North 3.7 mph /  6 km/h 3.7 mph /  6 km/h 57 % 0.0 in /  0 mm
19:07 11.6 °F /  -11.3 °C 3.6 °F /  -15.8 °C 1033.7 in /  35001.1 hPa North 4.7 mph /  7.6 km/h 4.7 mph /  7.6 km/h 58 % 0.0 in /  0 mm
19:12 11.5 °F /  -11.4 °C 3.5 °F /  -15.8 °C 1033.7 in /  35001.1 hPa North 3.7 mph /  6 km/h 3.7 mph /  6 km/h 58 % 0.0 in /  0 mm
19:17 11.4 °F /  -11.4 °C 3.4 °F /  -15.9 °C 1033.7 in /  35001.1 hPa North 3.7 mph /  6 km/h 3.7 mph /  6 km/h 58 % 0.0 in /  0 mm
19:22 11.3 °F /  -11.5 °C 3.3 °F /  -15.9 °C 1033.7 in /  35001.1 hPa North 3.7 mph /  6 km/h 3.7 mph /  6 km/h 58 % 0.0 in /  0 mm
19:27 11.2 °F /  -11.6 °C 3.2 °F /  -16 °C 1033.7 in /  35001.1 hPa North 3.9 mph /  6.3 km/h 3.9 mph /  6.3 km/h 58 % 0.0 in /  0 mm
19:32 11.2 °F /  -11.6 °C 3.2 °F /  -16 °C 1033.7 in /  35001.1 hPa North 3.7 mph /  6 km/h 3.7 mph /  6 km/h 58 % 0.0 in /  0 mm
19:37 11.1 °F /  -11.6 °C 3.2 °F /  -16 °C 1033.7 in /  35001.1 hPa North 3.7 mph /  6 km/h   58 % 0.0 in /  0 mm
19:42 10.9 °F /  -11.7 °C 2.9 °F /  -16.2 °C 1033.7 in /  35001.1 hPa Calm     58 % 0.0 in /  0 mm
19:47 10.8 °F /  -11.8 °C 2.8 °F /  -16.2 °C 1032.7 in /  34967.2 hPa Calm     58 % 0.0 in /  0 mm
19:52 10.7 °F /  -11.8 °C 3.0 °F /  -16.1 °C 1032.7 in /  34967.2 hPa Calm     59 % 0.0 in /  0 mm
19:57 10.5 °F /  -11.9 °C 2.8 °F /  -16.2 °C 1032.7 in /  34967.2 hPa North 3.7 mph /  6 km/h   59 % 0.0 in /  0 mm
20:02 10.1 °F /  -12.2 °C 2.4 °F /  -16.4 °C 1033.7 in /  35001.1 hPa North 3.7 mph /  6 km/h 3.7 mph /  6 km/h 59 % 0.0 in /  0 mm
20:07 10.0 °F /  -12.2 °C 2.6 °F /  -16.3 °C 1033.7 in /  35001.1 hPa North 1.9 mph /  3.1 km/h 1.9 mph /  3.1 km/h 60 % 0.0 in /  0 mm
20:12 9.9 °F /  -12.3 °C 2.5 °F /  -16.4 °C 1033.7 in /  35001.1 hPa Calm     60 % 0.0 in /  0 mm
20:17 9.8 °F /  -12.3 °C 2.4 °F /  -16.4 °C 1033.7 in /  35001.1 hPa North 3.7 mph /  6 km/h 3.7 mph /  6 km/h 60 % 0.0 in /  0 mm
20:22 9.8 °F /  -12.3 °C 2.4 °F /  -16.4 °C 1033.7 in /  35001.1 hPa North 1.9 mph /  3.1 km/h 1.9 mph /  3.1 km/h 60 % 0.0 in /  0 mm
20:27 9.7 °F /  -12.4 °C 2.6 °F /  -16.3 °C 1033.7 in /  35001.1 hPa North 3.2 mph /  5.1 km/h 3.2 mph /  5.1 km/h 61 % 0.0 in /  0 mm
20:32 9.6 °F /  -12.4 °C 2.4 °F /  -16.4 °C 1033.7 in /  35001.1 hPa North 2.3 mph /  3.7 km/h 2.3 mph /  3.7 km/h 61 % 0.0 in /  0 mm
20:37 9.6 °F /  -12.4 °C 2.4 °F /  -16.4 °C 1033.7 in /  35001.1 hPa North 1.9 mph /  3.1 km/h 1.9 mph /  3.1 km/h 61 % 0.0 in /  0 mm
20:42 9.5 °F /  -12.5 °C 2.3 °F /  -16.5 °C 1033.7 in /  35001.1 hPa Calm     61 % 0.0 in /  0 mm
20:47 9.5 °F /  -12.5 °C 2.3 °F /  -16.5 °C 1033.7 in /  35001.1 hPa North 1.9 mph /  3.1 km/h   61 % 0.0 in /  0 mm
20:52 9.4 °F /  -12.6 °C 2.5 °F /  -16.4 °C 1033.7 in /  35001.1 hPa Calm     62 % 0.0 in /  0 mm
20:57 9.3 °F /  -12.6 °C 2.4 °F /  -16.4 °C 1033.7 in /  35001.1 hPa Calm     62 % 0.0 in /  0 mm
21:02 9.2 °F /  -12.7 °C 2.3 °F /  -16.5 °C 1033.7 in /  35001.1 hPa Calm     62 % 0.0 in /  0 mm
21:07 9.1 °F /  -12.7 °C 2.2 °F /  -16.6 °C 1033.7 in /  35001.1 hPa North 1.9 mph /  3.1 km/h   62 % 0.0 in /  0 mm
21:12 9.0 °F /  -12.8 °C 2.3 °F /  -16.5 °C 1033.7 in /  35001.1 hPa Calm     63 % 0.0 in /  0 mm
21:17 9.0 °F /  -12.8 °C 2.3 °F /  -16.5 °C 1033.7 in /  35001.1 hPa Calm     63 % 0.0 in /  0 mm
21:22 8.9 °F /  -12.8 °C 2.2 °F /  -16.6 °C 1033.7 in /  35001.1 hPa North 3.7 mph /  6 km/h 3.7 mph /  6 km/h 63 % 0.0 in /  0 mm
21:27 8.9 °F /  -12.8 °C 2.2 °F /  -16.6 °C 1033.7 in /  35001.1 hPa North 1.9 mph /  3.1 km/h   63 % 0.0 in /  0 mm
21:32 8.8 °F /  -12.9 °C 2.1 °F /  -16.6 °C 1032.7 in /  34967.2 hPa Calm     63 % 0.0 in /  0 mm
21:37 8.7 °F /  -12.9 °C 2.1 °F /  -16.6 °C 1032.7 in /  34967.2 hPa North 1.4 mph /  2.3 km/h   63 % 0.0 in /  0 mm
21:42 8.7 °F /  -12.9 °C 2.1 °F /  -16.6 °C 1032.7 in /  34967.2 hPa North 3.7 mph /  6 km/h 3.7 mph /  6 km/h 63 % 0.0 in /  0 mm
21:47 8.4 °F /  -13.1 °C 1.8 °F /  -16.8 °C 1032.7 in /  34967.2 hPa North 3.7 mph /  6 km/h 3.7 mph /  6 km/h 63 % 0.0 in /  0 mm
21:52 8.3 °F /  -13.2 °C 1.7 °F /  -16.8 °C 1032.7 in /  34967.2 hPa North 3.9 mph /  6.3 km/h 3.9 mph /  6.3 km/h 63 % 0.0 in /  0 mm
21:55 4.6 °F /  -15.2 °C 0.3 °F /  -17.6 °C 1032.1 in /  34946.9 hPa Calm   1.6 mph /  2.6 km/h 74 % 0.0 in /  0 mm
21:57 8.2 °F /  -13.2 °C 1.8 °F /  -16.8 °C 1032.7 in /  34967.2 hPa North 1.9 mph /  3.1 km/h   64 % 0.0 in /  0 mm
22:02 8.0 °F /  -13.3 °C 1.6 °F /  -16.9 °C 1033.7 in /  35001.1 hPa North 3.7 mph /  6 km/h 3.7 mph /  6 km/h 64 % 0.0 in /  0 mm
22:05 4.5 °F /  -15.3 °C 0.4 °F /  -17.6 °C 1032.1 in /  34946.9 hPa Calm   3.2 mph /  5.1 km/h 75 % 0.0 in /  0 mm
22:07 7.9 °F /  -13.4 °C 1.5 °F /  -16.9 °C 1033.7 in /  35001.1 hPa North 3.9 mph /  6.3 km/h 3.9 mph /  6.3 km/h 64 % 0.0 in /  0 mm
22:12 8.0 °F /  -13.3 °C 1.6 °F /  -16.9 °C 1033.7 in /  35001.1 hPa North 1.9 mph /  3.1 km/h 2.3 mph /  3.7 km/h 64 % 0.0 in /  0 mm
22:15 4.5 °F /  -15.3 °C 0.4 °F /  -17.6 °C 1032.1 in /  34946.9 hPa Calm   1.6 mph /  2.6 km/h 75 % 0.0 in /  0 mm
22:17 8.0 °F /  -13.3 °C 1.6 °F /  -16.9 °C 1033.7 in /  35001.1 hPa Calm     64 % 0.0 in /  0 mm
22:22 8.0 °F /  -13.3 °C 1.6 °F /  -16.9 °C 1033.7 in /  35001.1 hPa North 1.9 mph /  3.1 km/h 1.9 mph /  3.1 km/h 64 % 0.0 in /  0 mm
22:25 4.4 °F /  -15.3 °C 0.6 °F /  -17.4 °C 1032.1 in /  34946.9 hPa Calm     76 % 0.0 in /  0 mm
22:27 8.1 °F /  -13.3 °C 1.9 °F /  -16.7 °C 1033.7 in /  35001.1 hPa Calm     65 % 0.0 in /  0 mm
22:32 8.2 °F /  -13.2 °C 1.8 °F /  -16.8 °C 1033.7 in /  35001.1 hPa North 3.5 mph /  5.6 km/h 3.5 mph /  5.6 km/h 64 % 0.0 in /  0 mm
22:35 4.5 °F /  -15.3 °C 0.6 °F /  -17.4 °C 1032.1 in /  34946.9 hPa Calm     76 % 0.0 in /  0 mm
22:37 8.2 °F /  -13.2 °C 1.8 °F /  -16.8 °C 1033.7 in /  35001.1 hPa North 1.9 mph /  3.1 km/h 1.9 mph /  3.1 km/h 64 % 0.0 in /  0 mm
22:42 8.3 °F /  -13.2 °C 2.1 °F /  -16.6 °C 1033.7 in /  35001.1 hPa North 1.9 mph /  3.1 km/h 1.9 mph /  3.1 km/h 65 % 0.0 in /  0 mm
22:45 4.5 °F /  -15.3 °C 0.6 °F /  -17.4 °C 1032.1 in /  34946.9 hPa Calm     76 % 0.0 in /  0 mm
22:47 8.3 °F /  -13.2 °C 2.1 °F /  -16.6 °C 1033.7 in /  35001.1 hPa North 1.9 mph /  3.1 km/h 1.9 mph /  3.1 km/h 65 % 0.0 in /  0 mm
22:52 8.2 °F /  -13.2 °C 2.0 °F /  -16.7 °C 1033.7 in /  35001.1 hPa North 1.9 mph /  3.1 km/h 1.9 mph /  3.1 km/h 65 % 0.0 in /  0 mm
22:55 4.5 °F /  -15.3 °C 0.6 °F /  -17.4 °C 1030.7 in /  34899.5 hPa Calm   1.6 mph /  2.6 km/h 76 % 0.0 in /  0 mm
22:57 8.1 °F /  -13.3 °C 1.9 °F /  -16.7 °C 1033.7 in /  35001.1 hPa North 1.9 mph /  3.1 km/h 1.9 mph /  3.1 km/h 65 % 0.0 in /  0 mm
23:02 8.0 °F /  -13.3 °C 1.8 °F /  -16.8 °C 1033.7 in /  35001.1 hPa North 1.9 mph /  3.1 km/h   65 % 0.0 in /  0 mm
23:05 4.4 °F /  -15.3 °C 0.6 °F /  -17.4 °C 1032.1 in /  34946.9 hPa Calm     76 % 0.0 in /  0 mm
23:07 8.0 °F /  -13.3 °C 1.8 °F /  -16.8 °C 1033.7 in /  35001.1 hPa Calm     65 % 0.0 in /  0 mm
23:12 7.9 °F /  -13.4 °C 1.7 °F /  -16.8 °C 1033.7 in /  35001.1 hPa Calm     65 % 0.0 in /  0 mm
23:15 4.3 °F /  -15.4 °C 0.6 °F /  -17.4 °C 1032.1 in /  34946.9 hPa Calm     77 % 0.0 in /  0 mm
23:17 7.9 °F /  -13.4 °C 1.7 °F /  -16.8 °C 1033.7 in /  35001.1 hPa North 3.9 mph /  6.3 km/h 3.9 mph /  6.3 km/h 65 % 0.0 in /  0 mm
23:22 7.7 °F /  -13.5 °C 1.7 °F /  -16.8 °C 1033.7 in /  35001.1 hPa North 1.9 mph /  3.1 km/h   66 % 0.0 in /  0 mm
23:25 4.0 °F /  -15.6 °C 0.2 °F /  -17.7 °C 1032.7 in /  34967.2 hPa Calm   1.6 mph /  2.6 km/h 76 % 0.0 in /  0 mm
23:27 7.7 °F /  -13.5 °C 1.6 °F /  -16.9 °C 1033.7 in /  35001.1 hPa North 3.9 mph /  6.3 km/h 3.9 mph /  6.3 km/h 65 % 0.0 in /  0 mm
23:32 7.9 °F /  -13.4 °C 1.7 °F /  -16.8 °C 1033.7 in /  35001.1 hPa North 1.9 mph /  3.1 km/h 1.9 mph /  3.1 km/h 65 % 0.0 in /  0 mm
23:35 4.0 °F /  -15.6 °C 0.3 °F /  -17.6 °C 1030.7 in /  34899.5 hPa Calm   3.2 mph /  5.1 km/h 77 % 0.0 in /  0 mm
23:37 7.9 °F /  -13.4 °C 1.9 °F /  -16.7 °C 1033.7 in /  35001.1 hPa Calm     66 % 0.0 in /  0 mm
23:42 7.9 °F /  -13.4 °C 1.7 °F /  -16.8 °C 1033.7 in /  35001.1 hPa North 2.6 mph /  4.2 km/h 2.6 mph /  4.2 km/h 65 % 0.0 in /  0 mm
23:45 3.9 °F /  -15.6 °C 0.2 °F /  -17.7 °C 1030.7 in /  34899.5 hPa Calm     77 % 0.0 in /  0 mm
23:47 7.8 °F /  -13.4 °C 1.8 °F /  -16.8 °C 1033.7 in /  35001.1 hPa North 2.3 mph /  3.7 km/h 2.3 mph /  3.7 km/h 66 % 0.0 in /  0 mm
23:52 7.8 °F /  -13.4 °C 1.8 °F /  -16.8 °C 1033.7 in /  35001.1 hPa North 3.7 mph /  6 km/h 3.7 mph /  6 km/h 66 % 0.0 in /  0 mm
23:55 3.8 °F /  -15.7 °C 0.1 °F /  -17.7 °C 1030.7 in /  34899.5 hPa Calm     77 % 0.0 in /  0 mm
23:57 7.9 °F /  -13.4 °C 1.9 °F /  -16.7 °C 1033.7 in /  35001.1 hPa North 1.9 mph /  3.1 km/h   66 % 0.0 in /  0 mm
Meteo Sesrovires
Elogis d' Weather Underground - 2 mb

Guio original per  Jim McMurry - jmcmurry@mwt.net Adaptat per a la plantilla per  Wim van der Kuil - Leuven-Template.eu

Trobareu la nostra informacio del temps tambe a:

Weather Underground

AWEKAS